createdAt,value
2017-10-14T00:00:23.830Z,101311
2017-10-14T00:01:24.081Z,101320
2017-10-14T00:02:23.935Z,101321
2017-10-14T00:03:23.935Z,101317
2017-10-14T00:04:24.057Z,101321
2017-10-14T00:05:24.055Z,101316
2017-10-14T00:06:24.567Z,101323
2017-10-14T00:07:24.132Z,101321
2017-10-14T00:08:24.289Z,101320
2017-10-14T00:09:24.326Z,101323
2017-10-14T00:10:24.386Z,101323
2017-10-14T00:11:24.533Z,101319
2017-10-14T00:12:24.834Z,101321
2017-10-14T00:13:24.643Z,101320
2017-10-14T00:14:24.776Z,101317
2017-10-14T00:15:24.879Z,101318
2017-10-14T00:16:24.937Z,101316
2017-10-14T00:17:24.967Z,101322
2017-10-14T00:18:25.253Z,101321
2017-10-14T00:19:25.086Z,101313
2017-10-14T00:20:25.074Z,101317
2017-10-14T00:21:25.130Z,101318
2017-10-14T00:22:25.208Z,101318
2017-10-14T00:23:25.231Z,101318
2017-10-14T00:24:25.664Z,101320
2017-10-14T00:25:25.362Z,101322
2017-10-14T00:26:25.405Z,101312
2017-10-14T00:27:25.488Z,101317
2017-10-14T00:28:25.497Z,101318
2017-10-14T00:29:25.542Z,101319
2017-10-14T00:30:25.858Z,101312
2017-10-14T00:31:25.665Z,101317
2017-10-14T00:32:25.620Z,101316
2017-10-14T00:33:25.745Z,101317
2017-10-14T00:34:25.726Z,101313
2017-10-14T00:35:25.842Z,101317
2017-10-14T00:36:26.135Z,101319
2017-10-14T00:37:25.984Z,101312
2017-10-14T00:38:25.898Z,101318
2017-10-14T00:39:25.995Z,101315
2017-10-14T00:40:25.989Z,101319
2017-10-14T00:41:25.963Z,101318
2017-10-14T00:42:26.329Z,101317
2017-10-14T00:43:26.032Z,101320
2017-10-14T00:44:26.080Z,101317
2017-10-14T00:45:26.299Z,101320
2017-10-14T00:46:26.262Z,101325
2017-10-14T00:47:26.232Z,101321
2017-10-14T00:48:26.609Z,101320
2017-10-14T00:49:26.469Z,101322
2017-10-14T00:50:26.481Z,101320
2017-10-14T00:52:26.629Z,101318
2017-10-14T00:53:26.620Z,101320
2017-10-14T00:54:27.101Z,101326
2017-10-14T00:55:26.810Z,101323
2017-10-14T00:56:26.817Z,101319
2017-10-14T00:57:26.924Z,101327
2017-10-14T00:58:26.877Z,101322
2017-10-14T00:59:26.944Z,101325
2017-10-14T01:00:27.822Z,101323
2017-10-14T01:01:27.059Z,101324
2017-10-14T01:02:27.069Z,101322
2017-10-14T01:03:27.140Z,101319
2017-10-14T01:04:27.252Z,101318
2017-10-14T01:05:27.226Z,101325
2017-10-14T01:06:27.586Z,101322
2017-10-14T01:07:27.324Z,101323
2017-10-14T01:08:27.448Z,101327
2017-10-14T01:09:27.535Z,101324
2017-10-14T01:10:27.553Z,101323
2017-10-14T01:11:27.576Z,101323
2017-10-14T01:12:27.995Z,101322
2017-10-14T01:13:27.694Z,101324
2017-10-14T01:14:27.802Z,101327
2017-10-14T01:15:27.799Z,101324
2017-10-14T01:16:27.903Z,101326
2017-10-14T01:17:27.928Z,101319
2017-10-14T01:18:28.354Z,101324
2017-10-14T01:19:27.946Z,101316
2017-10-14T01:20:28.060Z,101322
2017-10-14T01:21:28.143Z,101318
2017-10-14T01:22:28.135Z,101318
2017-10-14T01:23:28.185Z,101316
2017-10-14T01:24:28.475Z,101315
2017-10-14T01:25:28.294Z,101305
2017-10-14T01:26:28.291Z,101310
2017-10-14T01:27:28.450Z,101309
2017-10-14T01:28:28.389Z,101309
2017-10-14T01:29:28.433Z,101308
2017-10-14T01:30:28.832Z,101309
2017-10-14T01:31:28.533Z,101309
2017-10-14T01:32:28.506Z,101307
2017-10-14T01:33:28.566Z,101313
2017-10-14T01:34:28.739Z,101311
2017-10-14T01:35:28.759Z,101313
2017-10-14T01:36:29.063Z,101317
2017-10-14T01:37:28.887Z,101309
2017-10-14T01:38:28.899Z,101310
2017-10-14T01:39:29.015Z,101311
2017-10-14T01:40:29.088Z,101316
2017-10-14T01:41:29.003Z,101314
2017-10-14T01:42:29.439Z,101311
2017-10-14T01:43:29.204Z,101308
2017-10-14T01:44:29.258Z,101306
2017-10-14T01:45:29.284Z,101307
2017-10-14T01:46:29.289Z,101304
2017-10-14T01:47:29.302Z,101298
2017-10-14T01:48:29.564Z,101301
2017-10-14T01:49:29.380Z,101303
2017-10-14T01:50:29.396Z,101304
2017-10-14T01:51:29.434Z,101304
2017-10-14T01:52:29.616Z,101304
2017-10-14T01:53:29.604Z,101304
2017-10-14T01:54:29.932Z,101301
2017-10-14T01:55:29.751Z,101301
2017-10-14T01:56:29.785Z,101297
2017-10-14T01:57:29.901Z,101297
2017-10-14T01:58:29.943Z,101299
2017-10-14T01:59:29.961Z,101296
2017-10-14T02:00:30.257Z,101299
2017-10-14T02:01:30.039Z,101294
2017-10-14T02:02:30.135Z,101293
2017-10-14T02:03:30.276Z,101295
2017-10-14T02:04:30.310Z,101291
2017-10-14T02:05:30.374Z,101295
2017-10-14T02:06:30.643Z,101298
2017-10-14T02:07:30.409Z,101298
2017-10-14T02:08:30.399Z,101301
2017-10-14T02:09:30.424Z,101300
2017-10-14T02:10:30.458Z,101299
2017-10-14T02:11:30.547Z,101301
2017-10-14T02:12:30.819Z,101301
2017-10-14T02:13:30.657Z,101300
2017-10-14T02:14:30.746Z,101302
2017-10-14T02:15:30.800Z,101302
2017-10-14T02:16:30.892Z,101306
2017-10-14T02:17:30.942Z,101301
2017-10-14T02:18:31.250Z,101301
2017-10-14T02:19:31.003Z,101301
2017-10-14T02:20:31.033Z,101302
2017-10-14T02:21:31.054Z,101302
2017-10-14T02:22:31.058Z,101295
2017-10-14T02:23:31.114Z,101298
2017-10-14T02:24:31.489Z,101300
2017-10-14T02:25:31.248Z,101299
2017-10-14T02:26:31.273Z,101297
2017-10-14T02:27:31.330Z,101299
2017-10-14T02:28:31.293Z,101301
2017-10-14T02:29:31.384Z,101298
2017-10-14T02:30:31.703Z,101300
2017-10-14T02:31:31.439Z,101299
2017-10-14T02:32:31.527Z,101301
2017-10-14T02:33:31.634Z,101297
2017-10-14T02:34:31.648Z,101298
2017-10-14T02:35:31.739Z,101296
2017-10-14T02:36:31.972Z,101300
2017-10-14T02:37:31.797Z,101300
2017-10-14T02:38:31.720Z,101305
2017-10-14T02:39:31.816Z,101301
2017-10-14T02:40:31.825Z,101302
2017-10-14T02:41:31.840Z,101302
2017-10-14T02:42:32.235Z,101300
2017-10-14T02:43:32.034Z,101300
2017-10-14T02:44:32.059Z,101302
2017-10-14T02:45:32.165Z,101301
2017-10-14T02:46:32.230Z,101305
2017-10-14T02:47:32.227Z,101303
2017-10-14T02:48:32.636Z,101298
2017-10-14T02:49:32.334Z,101304
2017-10-14T02:50:32.409Z,101299
2017-10-14T02:51:32.484Z,101306
2017-10-14T02:52:32.444Z,101305
2017-10-14T02:53:32.451Z,101306
2017-10-14T02:54:32.846Z,101300
2017-10-14T02:55:32.664Z,101306
2017-10-14T02:56:32.739Z,101306
2017-10-14T02:57:32.751Z,101305
2017-10-14T02:58:32.756Z,101307
2017-10-14T02:59:32.729Z,101308
2017-10-14T03:00:33.045Z,101307
2017-10-14T03:01:32.925Z,101306
2017-10-14T03:02:32.982Z,101307
2017-10-14T03:03:32.979Z,101308
2017-10-14T03:04:33.038Z,101306
2017-10-14T03:05:33.115Z,101310
2017-10-14T03:06:33.132Z,101308
2017-10-14T03:07:33.206Z,101311
2017-10-14T03:08:33.339Z,101311
2017-10-14T03:09:33.450Z,101306
2017-10-14T03:10:33.519Z,101313
2017-10-14T03:11:33.523Z,101309
2017-10-14T03:12:33.687Z,101311
2017-10-14T03:13:33.758Z,101311
2017-10-14T03:14:33.764Z,101313
2017-10-14T03:15:33.784Z,101315
2017-10-14T03:16:33.847Z,101307
2017-10-14T03:17:33.994Z,101313
2017-10-14T03:18:34.055Z,101315
2017-10-14T03:19:34.103Z,101316
2017-10-14T03:20:34.076Z,101317
2017-10-14T03:21:34.161Z,101311
2017-10-14T03:22:34.268Z,101318
2017-10-14T03:23:34.319Z,101315
2017-10-14T03:24:34.310Z,101319
2017-10-14T03:25:34.430Z,101316
2017-10-14T03:26:34.365Z,101318
2017-10-14T03:27:34.428Z,101318
2017-10-14T03:28:34.558Z,101317
2017-10-14T03:29:34.580Z,101318
2017-10-14T03:30:34.566Z,101320
2017-10-14T03:31:34.698Z,101316
2017-10-14T03:32:34.696Z,101320
2017-10-14T03:33:34.649Z,101321
2017-10-14T03:34:34.711Z,101319
2017-10-14T03:35:34.791Z,101315
2017-10-14T03:36:34.827Z,101318
2017-10-14T03:37:34.834Z,101318
2017-10-14T03:38:34.897Z,101318
2017-10-14T03:39:34.937Z,101316
2017-10-14T03:40:35.047Z,101320
2017-10-14T03:41:35.046Z,101312
2017-10-14T03:42:35.087Z,101315
2017-10-14T03:43:35.140Z,101317
2017-10-14T03:44:35.319Z,101311
2017-10-14T03:45:35.367Z,101310
2017-10-14T03:46:35.449Z,101314
2017-10-14T03:47:35.471Z,101316
2017-10-14T03:48:35.594Z,101311
2017-10-14T03:49:35.636Z,101313
2017-10-14T03:50:35.728Z,101315
2017-10-14T03:51:35.721Z,101316
2017-10-14T03:52:35.837Z,101315
2017-10-14T03:53:35.861Z,101315
2017-10-14T03:54:35.926Z,101316
2017-10-14T03:55:35.955Z,101309
2017-10-14T03:56:36.025Z,101314
2017-10-14T03:57:36.088Z,101315
2017-10-14T03:58:36.062Z,101318
2017-10-14T03:59:36.120Z,101317
2017-10-14T04:00:36.221Z,101319
2017-10-14T04:01:36.260Z,101319
2017-10-14T04:02:36.260Z,101324
2017-10-14T04:03:36.408Z,101322
2017-10-14T04:04:36.409Z,101320
2017-10-14T04:05:36.481Z,101322
2017-10-14T04:06:36.458Z,101323
2017-10-14T04:07:36.622Z,101323
2017-10-14T04:08:36.656Z,101327
2017-10-14T04:09:36.741Z,101326
2017-10-14T04:10:36.787Z,101325
2017-10-14T04:11:36.884Z,101326
2017-10-14T04:12:36.892Z,101323
2017-10-14T04:13:37.023Z,101326
2017-10-14T04:14:37.072Z,101324
2017-10-14T04:15:37.082Z,101327
2017-10-14T04:16:37.101Z,101323
2017-10-14T04:17:37.144Z,101328
2017-10-14T04:18:37.294Z,101327
2017-10-14T04:19:37.353Z,101324
2017-10-14T04:20:37.452Z,101329
2017-10-14T04:21:37.495Z,101332
2017-10-14T04:22:37.537Z,101329
2017-10-14T04:23:37.595Z,101327
2017-10-14T04:24:37.578Z,101330
2017-10-14T04:25:37.703Z,101331
2017-10-14T04:26:37.645Z,101325
2017-10-14T04:27:37.737Z,101334
2017-10-14T04:28:37.829Z,101331
2017-10-14T04:29:37.994Z,101333
2017-10-14T04:30:37.979Z,101333
2017-10-14T04:31:38.049Z,101332
2017-10-14T04:32:38.142Z,101334
2017-10-14T04:33:38.260Z,101331
2017-10-14T04:34:38.241Z,101335
2017-10-14T04:35:38.403Z,101336
2017-10-14T04:36:38.402Z,101330
2017-10-14T04:37:38.395Z,101334
2017-10-14T04:38:38.477Z,101330
2017-10-14T04:39:38.557Z,101335
2017-10-14T04:40:38.549Z,101334
2017-10-14T04:41:38.628Z,101334
2017-10-14T04:42:38.714Z,101333
2017-10-14T04:43:38.768Z,101334
2017-10-14T04:44:38.793Z,101333
2017-10-14T04:45:38.841Z,101334
2017-10-14T04:46:38.977Z,101335
2017-10-14T04:47:38.977Z,101325
2017-10-14T04:48:39.010Z,101333
2017-10-14T04:49:39.024Z,101328
2017-10-14T04:50:39.090Z,101335
2017-10-14T04:51:39.113Z,101336
2017-10-14T04:52:39.120Z,101338
2017-10-14T04:53:39.283Z,101336
2017-10-14T04:54:39.351Z,101338
2017-10-14T04:55:39.335Z,101338
2017-10-14T04:56:39.377Z,101335
2017-10-14T04:57:39.477Z,101341
2017-10-14T04:58:39.519Z,101337
2017-10-14T04:59:39.572Z,101337
2017-10-14T05:00:39.622Z,101335
2017-10-14T05:01:39.622Z,101333
2017-10-14T05:02:39.707Z,101338
2017-10-14T05:03:39.710Z,101329
2017-10-14T05:04:39.792Z,101334
2017-10-14T05:05:39.866Z,101335
2017-10-14T05:06:39.979Z,101330
2017-10-14T05:07:40.009Z,101332
2017-10-14T05:08:40.023Z,101330
2017-10-14T05:09:39.971Z,101330
2017-10-14T05:10:40.056Z,101326
2017-10-14T05:11:40.128Z,101330
2017-10-14T05:12:40.199Z,101328
2017-10-14T05:13:40.240Z,101330
2017-10-14T05:14:40.319Z,101331
2017-10-14T05:15:40.419Z,101328
2017-10-14T05:16:40.415Z,101329
2017-10-14T05:17:40.584Z,101327
2017-10-14T05:18:40.632Z,101328
2017-10-14T05:19:40.627Z,101328
2017-10-14T05:20:40.756Z,101328
2017-10-14T05:21:40.764Z,101320
2017-10-14T05:22:40.884Z,101330
2017-10-14T05:23:40.928Z,101326
2017-10-14T05:24:40.957Z,101326
2017-10-14T05:25:41.055Z,101326
2017-10-14T05:26:41.024Z,101328
2017-10-14T05:27:41.169Z,101328
2017-10-14T05:28:41.142Z,101329
2017-10-14T05:29:41.241Z,101329
2017-10-14T05:30:41.299Z,101327
2017-10-14T05:31:41.323Z,101329
2017-10-14T05:32:41.277Z,101330
2017-10-14T05:33:41.339Z,101329
2017-10-14T05:34:41.446Z,101327
2017-10-14T05:35:41.487Z,101331
2017-10-14T05:36:41.495Z,101327
2017-10-14T05:37:41.537Z,101331
2017-10-14T05:38:41.623Z,101328
2017-10-14T05:39:41.708Z,101332
2017-10-14T05:40:41.858Z,101332
2017-10-14T05:41:41.941Z,101334
2017-10-14T05:42:42.002Z,101335
2017-10-14T05:43:42.019Z,101335
2017-10-14T05:44:42.044Z,101337
2017-10-14T05:45:42.192Z,101342
2017-10-14T05:46:42.215Z,101341
2017-10-14T05:47:42.307Z,101343
2017-10-14T05:48:42.322Z,101339
2017-10-14T05:49:42.394Z,101342
2017-10-14T05:50:42.414Z,101339
2017-10-14T05:51:42.506Z,101336
2017-10-14T05:52:42.517Z,101334
2017-10-14T05:53:42.598Z,101338
2017-10-14T05:54:42.563Z,101336
2017-10-14T05:55:42.662Z,101341
2017-10-14T05:56:42.670Z,101336
2017-10-14T05:57:42.807Z,101343
2017-10-14T05:58:42.782Z,101339
2017-10-14T05:59:42.907Z,101346
2017-10-14T06:00:42.832Z,101344
2017-10-14T06:01:42.913Z,101346
2017-10-14T06:02:42.920Z,101345
2017-10-14T06:03:42.975Z,101347
2017-10-14T06:04:43.038Z,101347
2017-10-14T06:05:43.059Z,101348
2017-10-14T06:06:42.997Z,101351
2017-10-14T06:07:43.088Z,101349
2017-10-14T06:08:43.083Z,101350
2017-10-14T06:09:43.199Z,101352
2017-10-14T06:10:43.197Z,101352
2017-10-14T06:11:43.226Z,101354
2017-10-14T06:12:43.296Z,101354
2017-10-14T06:13:43.367Z,101355
2017-10-14T06:14:43.392Z,101352
2017-10-14T06:15:43.459Z,101353
2017-10-14T06:16:43.521Z,101351
2017-10-14T06:17:43.594Z,101355
2017-10-14T06:18:43.650Z,101351
2017-10-14T06:19:43.622Z,101350
2017-10-14T06:20:43.697Z,101356
2017-10-14T06:21:43.815Z,101354
2017-10-14T06:22:43.887Z,101355
2017-10-14T06:23:43.914Z,101352
2017-10-14T06:24:44.064Z,101357
2017-10-14T06:25:44.055Z,101357
2017-10-14T06:26:44.159Z,101351
2017-10-14T06:27:44.224Z,101357
2017-10-14T06:28:44.334Z,101357
2017-10-14T06:29:44.338Z,101361
2017-10-14T06:30:44.414Z,101363
2017-10-14T06:31:44.510Z,101361
2017-10-14T06:32:44.605Z,101361
2017-10-14T06:33:44.627Z,101360
2017-10-14T06:34:44.740Z,101365
2017-10-14T06:35:44.842Z,101367
2017-10-14T06:36:44.916Z,101371
2017-10-14T06:37:44.907Z,101370
2017-10-14T06:38:45.011Z,101371
2017-10-14T06:39:45.095Z,101372
2017-10-14T06:40:45.124Z,101374
2017-10-14T06:41:45.129Z,101373
2017-10-14T06:42:45.430Z,101375
2017-10-14T06:43:45.218Z,101376
2017-10-14T06:44:45.299Z,101375
2017-10-14T06:45:45.369Z,101375
2017-10-14T06:46:45.461Z,101374
2017-10-14T06:47:45.467Z,101375
2017-10-14T06:48:45.770Z,101377
2017-10-14T06:49:45.439Z,101379
2017-10-14T06:50:45.522Z,101382
2017-10-14T06:51:45.591Z,101375
2017-10-14T06:52:45.583Z,101377
2017-10-14T06:53:45.736Z,101380
2017-10-14T06:54:46.049Z,101382
2017-10-14T06:55:45.874Z,101379
2017-10-14T06:56:45.889Z,101374
2017-10-14T06:57:45.852Z,101381
2017-10-14T06:58:45.938Z,101382
2017-10-14T06:59:45.899Z,101379
2017-10-14T07:00:46.353Z,101384
2017-10-14T07:01:46.113Z,101385
2017-10-14T07:02:46.183Z,101382
2017-10-14T07:03:46.150Z,101386
2017-10-14T07:04:46.224Z,101386
2017-10-14T07:05:46.280Z,101385
2017-10-14T07:06:46.561Z,101389
2017-10-14T07:07:46.268Z,101388
2017-10-14T07:08:46.417Z,101391
2017-10-14T07:09:46.508Z,101394
2017-10-14T07:10:46.564Z,101393
2017-10-14T07:11:46.526Z,101392
2017-10-14T07:12:46.912Z,101395
2017-10-14T07:13:46.722Z,101398
2017-10-14T07:14:46.795Z,101396
2017-10-14T07:15:46.835Z,101391
2017-10-14T07:16:46.898Z,101402
2017-10-14T07:17:47.008Z,101400
2017-10-14T07:18:47.256Z,101403
2017-10-14T07:19:47.112Z,101406
2017-10-14T07:20:47.099Z,101405
2017-10-14T07:21:47.118Z,101406
2017-10-14T07:22:47.182Z,101409
2017-10-14T07:23:47.201Z,101405
2017-10-14T07:24:47.610Z,101409
2017-10-14T07:25:47.381Z,101409
2017-10-14T07:26:47.450Z,101406
2017-10-14T07:27:47.503Z,101413
2017-10-14T07:28:47.525Z,101406
2017-10-14T07:29:47.624Z,101409
2017-10-14T07:30:47.977Z,101414
2017-10-14T07:31:47.655Z,101415
2017-10-14T07:32:47.784Z,101414
2017-10-14T07:33:47.818Z,101410
2017-10-14T07:34:47.833Z,101414
2017-10-14T07:35:47.822Z,101417
2017-10-14T07:36:48.129Z,101417
2017-10-14T07:37:47.888Z,101416
2017-10-14T07:38:48.041Z,101414
2017-10-14T07:39:48.003Z,101420
2017-10-14T07:40:48.085Z,101420
2017-10-14T07:41:48.114Z,101416
2017-10-14T07:42:48.427Z,101422
2017-10-14T07:43:48.133Z,101420
2017-10-14T07:44:48.123Z,101421
2017-10-14T07:45:48.279Z,101421
2017-10-14T07:46:48.232Z,101421
2017-10-14T07:47:48.340Z,101416
2017-10-14T07:48:48.633Z,101420
2017-10-14T07:49:48.344Z,101418
2017-10-14T07:50:48.400Z,101426
2017-10-14T07:51:48.483Z,101423
2017-10-14T07:52:48.478Z,101423
2017-10-14T07:53:48.603Z,101425
2017-10-14T07:54:48.865Z,101421
2017-10-14T07:55:48.726Z,101421
2017-10-14T07:56:48.756Z,101421
2017-10-14T07:57:48.851Z,101420
2017-10-14T07:58:48.894Z,101420
2017-10-14T07:59:48.943Z,101418
2017-10-14T08:00:49.284Z,101416
2017-10-14T08:01:48.943Z,101414
2017-10-14T08:02:49.092Z,101422
2017-10-14T08:03:49.082Z,101423
2017-10-14T08:04:49.177Z,101418
2017-10-14T08:05:49.157Z,101422
2017-10-14T08:06:49.503Z,101421
2017-10-14T08:07:49.246Z,101419
2017-10-14T08:08:49.268Z,101420
2017-10-14T08:09:49.409Z,101422
2017-10-14T08:10:49.364Z,101423
2017-10-14T08:11:49.524Z,101427
2017-10-14T08:12:49.827Z,101429
2017-10-14T08:13:49.585Z,101429
2017-10-14T08:14:49.675Z,101427
2017-10-14T08:15:49.583Z,101431
2017-10-14T08:16:49.674Z,101430
2017-10-14T08:17:49.768Z,101430
2017-10-14T08:18:50.152Z,101430
2017-10-14T08:19:49.817Z,101426
2017-10-14T08:20:49.849Z,101433
2017-10-14T08:21:49.903Z,101433
2017-10-14T08:22:49.989Z,101420
2017-10-14T08:23:49.933Z,101421
2017-10-14T08:24:50.203Z,101419
2017-10-14T08:25:50.007Z,101421
2017-10-14T08:26:50.060Z,101416
2017-10-14T08:27:50.214Z,101407
2017-10-14T08:28:50.290Z,101417
2017-10-14T08:29:50.297Z,101417
2017-10-14T08:30:50.563Z,101414
2017-10-14T08:31:50.350Z,101414
2017-10-14T08:32:50.479Z,101409
2017-10-14T08:33:50.520Z,101410
2017-10-14T08:34:50.575Z,101411
2017-10-14T08:35:50.668Z,101406
2017-10-14T08:36:50.912Z,101416
2017-10-14T08:37:50.769Z,101415
2017-10-14T08:38:50.717Z,101412
2017-10-14T08:39:50.853Z,101423
2017-10-14T08:40:50.852Z,101420
2017-10-14T08:41:51.009Z,101424
2017-10-14T08:42:51.276Z,101422
2017-10-14T08:43:51.014Z,101421
2017-10-14T08:44:51.107Z,101420
2017-10-14T08:45:51.258Z,101426
2017-10-14T08:46:51.171Z,101423
2017-10-14T08:47:51.252Z,101415
2017-10-14T08:48:51.642Z,101422
2017-10-14T08:49:51.469Z,101421
2017-10-14T08:50:51.489Z,101420
2017-10-14T08:51:51.490Z,101420
2017-10-14T08:52:51.571Z,101427
2017-10-14T08:53:51.572Z,101426
2017-10-14T08:54:51.957Z,101429
2017-10-14T08:55:51.724Z,101427
2017-10-14T08:56:51.795Z,101428
2017-10-14T08:57:51.740Z,101429
2017-10-14T08:58:51.805Z,101432
2017-10-14T08:59:51.763Z,101430
2017-10-14T09:00:52.091Z,101431
2017-10-14T09:01:51.889Z,101434
2017-10-14T09:02:51.972Z,101432
2017-10-14T09:03:52.044Z,101439
2017-10-14T09:04:52.031Z,101433
2017-10-14T09:05:52.094Z,101428
2017-10-14T09:06:52.339Z,101440
2017-10-14T09:07:52.247Z,101440
2017-10-14T09:08:52.307Z,101440
2017-10-14T09:09:52.285Z,101445
2017-10-14T09:10:52.279Z,101434
2017-10-14T09:11:52.320Z,101445
2017-10-14T09:12:52.695Z,101447
2017-10-14T09:13:52.492Z,101441
2017-10-14T09:14:52.497Z,101447
2017-10-14T09:15:52.525Z,101449
2017-10-14T09:16:52.588Z,101447
2017-10-14T09:17:52.579Z,101448
2017-10-14T09:18:52.990Z,101449
2017-10-14T09:19:52.777Z,101455
2017-10-14T09:20:52.859Z,101454
2017-10-14T09:21:52.894Z,101455
2017-10-14T09:22:52.896Z,101458
2017-10-14T09:23:52.988Z,101453
2017-10-14T09:24:53.347Z,101456
2017-10-14T09:25:53.091Z,101453
2017-10-14T09:26:53.233Z,101461
2017-10-14T09:27:53.258Z,101459
2017-10-14T09:28:53.305Z,101458
2017-10-14T09:29:53.307Z,101458
2017-10-14T09:30:53.724Z,101464
2017-10-14T09:31:53.360Z,101457
2017-10-14T09:32:53.353Z,101458
2017-10-14T09:33:53.483Z,101456
2017-10-14T09:34:53.510Z,101460
2017-10-14T09:35:53.531Z,101460
2017-10-14T09:36:53.768Z,101460
2017-10-14T09:37:53.558Z,101461
2017-10-14T09:38:53.702Z,101458
2017-10-14T09:39:53.767Z,101464
2017-10-14T09:40:53.768Z,101464
2017-10-14T09:41:53.824Z,101464
2017-10-14T09:42:54.198Z,101463
2017-10-14T09:43:53.862Z,101462
2017-10-14T09:44:53.955Z,101467
2017-10-14T09:45:54.007Z,101463
2017-10-14T09:46:53.990Z,101466
2017-10-14T09:47:54.045Z,101466
2017-10-14T09:48:54.338Z,101462
2017-10-14T09:49:54.164Z,101465
2017-10-14T09:50:54.162Z,101466
2017-10-14T09:51:54.303Z,101460
2017-10-14T09:52:54.395Z,101455
2017-10-14T09:53:54.436Z,101457
2017-10-14T09:54:54.684Z,101455
2017-10-14T09:55:54.517Z,101459
2017-10-14T09:56:54.518Z,101454
2017-10-14T09:57:54.547Z,101455
2017-10-14T09:58:54.662Z,101445
2017-10-14T09:59:54.729Z,101456
2017-10-14T10:00:54.947Z,101458
2017-10-14T10:01:54.758Z,101456
2017-10-14T10:02:54.717Z,101459
2017-10-14T10:03:54.803Z,101457
2017-10-14T10:04:54.915Z,101458
2017-10-14T10:05:54.904Z,101455
2017-10-14T10:06:55.303Z,101456
2017-10-14T10:07:55.058Z,101461
2017-10-14T10:08:55.215Z,101459
2017-10-14T10:09:55.187Z,101461
2017-10-14T10:10:55.297Z,101464
2017-10-14T10:11:55.334Z,101461
2017-10-14T10:12:55.657Z,101454
2017-10-14T10:13:55.494Z,101459
2017-10-14T10:14:55.547Z,101462
2017-10-14T10:15:55.602Z,101459
2017-10-14T10:16:55.635Z,101457
2017-10-14T10:17:55.593Z,101457
2017-10-14T10:18:56.058Z,101455
2017-10-14T10:19:55.680Z,101452
2017-10-14T10:20:55.772Z,101458
2017-10-14T10:21:55.946Z,101452
2017-10-14T10:22:56.032Z,101456
2017-10-14T10:23:55.992Z,101454
2017-10-14T10:24:56.376Z,101456
2017-10-14T10:25:56.119Z,101454
2017-10-14T10:26:56.138Z,101453
2017-10-14T10:27:56.150Z,101451
2017-10-14T10:28:56.199Z,101438
2017-10-14T10:29:56.295Z,101449
2017-10-14T10:30:56.690Z,101444
2017-10-14T10:31:56.389Z,101444
2017-10-14T10:32:56.462Z,101441
2017-10-14T10:33:56.581Z,101440
2017-10-14T10:34:56.637Z,101440
2017-10-14T10:35:56.708Z,101442
2017-10-14T10:36:56.949Z,101437
2017-10-14T10:37:56.736Z,101443
2017-10-14T10:38:56.726Z,101443
2017-10-14T10:39:56.792Z,101439
2017-10-14T10:40:56.810Z,101436
2017-10-14T10:41:56.902Z,101432
2017-10-14T10:42:57.287Z,101430
2017-10-14T10:43:56.976Z,101432
2017-10-14T10:44:57.108Z,101438
2017-10-14T10:45:57.183Z,101435
2017-10-14T10:46:57.230Z,101438
2017-10-14T10:47:57.184Z,101434
2017-10-14T10:48:57.588Z,101435
2017-10-14T10:49:57.212Z,101434
2017-10-14T10:50:57.319Z,101433
2017-10-14T10:51:57.326Z,101433
2017-10-14T10:52:57.332Z,101427
2017-10-14T10:53:57.404Z,101423
2017-10-14T10:54:57.776Z,101428
2017-10-14T10:55:57.450Z,101421
2017-10-14T10:56:57.462Z,101422
2017-10-14T10:57:57.563Z,101421
2017-10-14T10:58:57.532Z,101417
2017-10-14T10:59:57.569Z,101413
2017-10-14T11:00:57.894Z,101414
2017-10-14T11:01:57.631Z,101411
2017-10-14T11:02:57.697Z,101406
2017-10-14T11:03:57.671Z,101406
2017-10-14T11:04:57.823Z,101404
2017-10-14T11:05:57.871Z,101410
2017-10-14T11:06:58.176Z,101410
2017-10-14T11:07:57.875Z,101412
2017-10-14T11:08:58.019Z,101410
2017-10-14T11:09:58.007Z,101412
2017-10-14T11:10:58.125Z,101399
2017-10-14T11:11:58.195Z,101408
2017-10-14T11:12:58.487Z,101404
2017-10-14T11:13:58.279Z,101396
2017-10-14T11:14:58.228Z,101397
2017-10-14T11:15:58.241Z,101395
2017-10-14T11:16:58.283Z,101399
2017-10-14T11:17:58.459Z,101395
2017-10-14T11:18:58.700Z,101398
2017-10-14T11:19:58.532Z,101403
2017-10-14T11:20:58.571Z,101394
2017-10-14T11:21:58.648Z,101403
2017-10-14T11:22:58.682Z,101396
2017-10-14T11:23:58.688Z,101398
2017-10-14T11:24:58.980Z,101397
2017-10-14T11:25:58.782Z,101404
2017-10-14T11:26:58.857Z,101405
2017-10-14T11:27:58.878Z,101405
2017-10-14T11:28:58.864Z,101408
2017-10-14T11:29:58.943Z,101408
2017-10-14T11:30:59.219Z,101403
2017-10-14T11:31:59.041Z,101406
2017-10-14T11:32:59.057Z,101397
2017-10-14T11:33:59.088Z,101404
2017-10-14T11:34:59.254Z,101399
2017-10-14T11:35:59.351Z,101401
2017-10-14T11:36:59.588Z,101398
2017-10-14T11:37:59.331Z,101391
2017-10-14T11:38:59.357Z,101398
2017-10-14T11:39:59.433Z,101384
2017-10-14T11:40:59.511Z,101387
2017-10-14T11:41:59.567Z,101386
2017-10-14T11:42:59.877Z,101386
2017-10-14T11:43:59.618Z,101387
2017-10-14T11:44:59.766Z,101385
2017-10-14T11:45:59.794Z,101382
2017-10-14T11:46:59.890Z,101382
2017-10-14T11:48:00.061Z,101383
2017-10-14T11:49:00.328Z,101379
2017-10-14T11:50:00.028Z,101384
2017-10-14T11:51:00.125Z,101381
2017-10-14T11:52:00.146Z,101374
2017-10-14T11:53:00.299Z,101377
2017-10-14T11:54:00.314Z,101375
2017-10-14T11:55:00.728Z,101369
2017-10-14T11:56:00.410Z,101367
2017-10-14T11:57:00.470Z,101367
2017-10-14T11:58:00.477Z,101368
2017-10-14T11:59:00.487Z,101363
2017-10-14T12:00:00.598Z,101359
2017-10-14T12:01:00.785Z,101359
2017-10-14T12:02:00.586Z,101352
2017-10-14T12:03:00.618Z,101352
2017-10-14T12:04:00.683Z,101352
2017-10-14T12:05:00.762Z,101355
2017-10-14T12:06:00.821Z,101349
2017-10-14T12:07:01.061Z,101346
2017-10-14T12:08:00.895Z,101343
2017-10-14T12:09:00.911Z,101348
2017-10-14T12:10:00.979Z,101349
2017-10-14T12:11:01.092Z,101349
2017-10-14T12:12:01.400Z,101346
2017-10-14T12:13:01.169Z,101346
2017-10-14T12:14:01.134Z,101351
2017-10-14T12:15:01.234Z,101354
2017-10-14T12:16:01.376Z,101355
2017-10-14T12:17:01.385Z,101356
2017-10-14T12:18:01.803Z,101358
2017-10-14T12:19:01.575Z,101360
2017-10-14T12:20:01.632Z,101355
2017-10-14T12:21:01.625Z,101356
2017-10-14T12:22:01.748Z,101354
2017-10-14T12:23:01.785Z,101355
2017-10-14T12:24:02.007Z,101348
2017-10-14T12:25:01.859Z,101360
2017-10-14T12:26:01.934Z,101362
2017-10-14T12:27:01.955Z,101358
2017-10-14T12:28:02.065Z,101361
2017-10-14T12:29:02.150Z,101365
2017-10-14T12:30:02.443Z,101358